^^
B2 Weather Station Historical Data
Daily Summary for November 11, 2018 Units:  English    Metric   Both
Daily Weekly Monthly Yearly Custom
  High: Low: Average:
Temperature: 42.9 °F 24.2 °F 32.9 °F
Dew Point: 29.3 °F 20.3 °F 25.3 °F
Humidity: 88% 57% 74%
Wind Speed: 17.0mph 0.0mph 5.7mph
Wind Gust: 9.5mph - -
Wind- - SSW
Pressure: 30.36 in 30.24 in -
Precipitation: 0.00 in    
Historical Graphs
 
 
Tabular Data for November 11, 2018
Time Temperature Dew Point Pressure Wind Wind Speed Wind Gust Humidity Rainfall Rate (Hourly) solar
00:04 26.4 °F 23.3 °F 30.35 in SSE 8.1 mph 6.2 mph 88% 0.00 in 0.00 W/m2
00:09 26.5 °F 23.4 °F 30.35 in SSE 8.1 mph 5.9 mph 88% 0.00 in 0.00 W/m2
00:14 26.5 °F 23.4 °F 30.35 in SE 9.2 mph 5.4 mph 88% 0.00 in 0.00 W/m2
00:19 26.5 °F 23.4 °F 30.35 in SSE 5.8 mph 3.6 mph 88% 0.00 in 0.00 W/m2
00:24 26.5 °F 23.4 °F 30.35 in South 5.8 mph 4.2 mph 88% 0.00 in 0.00 W/m2
00:29 26.5 °F 23.2 °F 30.35 in SSE 5.8 mph 3.2 mph 87% 0.00 in 0.00 W/m2
00:34 26.5 °F 23.2 °F 30.36 in SSE 4.6 mph 3.1 mph 87% 0.00 in 0.00 W/m2
00:39 26.5 °F 23.2 °F 30.36 in South 4.6 mph 2.7 mph 87% 0.00 in 0.00 W/m2
00:44 26.6 °F 23.3 °F 30.35 in SSE 5.8 mph 4.6 mph 87% 0.00 in 0.00 W/m2
00:49 26.7 °F 23.1 °F 30.35 in South 7.0 mph 4.3 mph 86% 0.00 in 0.00 W/m2
00:54 26.9 °F 23.3 °F 30.35 in SSE 6.0 mph 4.0 mph 86% 0.00 in 0.00 W/m2
00:59 27.0 °F 23.1 °F 30.35 in South 8.1 mph 4.4 mph 85% 0.00 in 0.00 W/m2
01:04 27.0 °F 23.1 °F 30.36 in South 5.8 mph 3.8 mph 85% 0.00 in 0.00 W/m2
01:09 27.0 °F 23.1 °F 30.36 in South 4.6 mph 3.6 mph 85% 0.00 in 0.00 W/m2
01:14 27.1 °F 22.9 °F 30.36 in South 5.8 mph 4.4 mph 84% 0.00 in 0.00 W/m2
01:19 27.1 °F 22.9 °F 30.36 in South 4.6 mph 3.0 mph 84% 0.00 in 0.00 W/m2
01:24 27.2 °F 23.0 °F 30.36 in SSE 5.0 mph 2.7 mph 84% 0.00 in 0.00 W/m2
01:29 27.2 °F 23.0 °F 30.35 in South 5.0 mph 2.8 mph 84% 0.00 in 0.00 W/m2
01:34 27.3 °F 22.8 °F 30.35 in South 5.0 mph 1.8 mph 83% 0.00 in 0.00 W/m2
01:39 27.3 °F 23.1 °F 30.36 in South 5.0 mph 3.5 mph 84% 0.00 in 0.00 W/m2
01:44 27.3 °F 23.1 °F 30.36 in South 5.8 mph 4.6 mph 84% 0.00 in 0.00 W/m2
01:49 27.3 °F 22.8 °F 30.36 in SSE 4.6 mph 2.7 mph 83% 0.00 in 0.00 W/m2
01:54 27.4 °F 22.9 °F 30.36 in South 3.5 mph 3.0 mph 83% 0.00 in 0.00 W/m2
01:59 27.4 °F 22.9 °F 30.36 in South 4.0 mph 3.3 mph 83% 0.00 in 0.00 W/m2
02:04 27.4 °F 23.2 °F 30.36 in SSE 4.0 mph 3.8 mph 84% 0.00 in 0.00 W/m2
02:09 27.4 °F 22.9 °F 30.36 in South 6.9 mph 6.0 mph 83% 0.00 in 0.00 W/m2
02:14 27.6 °F 22.8 °F 30.35 in South 8.1 mph 3.9 mph 82% 0.00 in 0.00 W/m2
02:19 27.6 °F 22.8 °F 30.36 in SSE 8.1 mph 4.8 mph 82% 0.00 in 0.00 W/m2
02:24 27.6 °F 22.5 °F 30.36 in South 6.9 mph 4.0 mph 81% 0.00 in 0.00 W/m2
02:29 27.7 °F 22.6 °F 30.36 in SSE 5.8 mph 5.0 mph 81% 0.00 in 0.00 W/m2
02:34 27.7 °F 22.6 °F 30.35 in SSW 7.0 mph 5.1 mph 81% 0.00 in 0.00 W/m2
02:39 27.7 °F 22.3 °F 30.35 in South 10.4 mph 4.6 mph 80% 0.00 in 0.00 W/m2
02:44 27.7 °F 22.3 °F 30.35 in North 6.9 mph 3.2 mph 80% 0.00 in 0.00 W/m2
02:49 27.7 °F 22.3 °F 30.35 in South 8.1 mph 3.9 mph 80% 0.00 in 0.00 W/m2
02:54 27.7 °F 22.0 °F 30.35 in South 6.9 mph 4.7 mph 79% 0.00 in 0.00 W/m2
02:59 27.8 °F 22.1 °F 30.35 in South 6.0 mph 4.3 mph 79% 0.00 in 0.00 W/m2
03:04 27.8 °F 22.1 °F 30.35 in South 11.5 mph 5.7 mph 79% 0.00 in 0.00 W/m2
03:09 27.9 °F 21.9 °F 30.35 in South 5.8 mph 2.6 mph 78% 0.00 in 0.00 W/m2
03:14 27.9 °F 21.9 °F 30.35 in SSW 8.1 mph 4.1 mph 78% 0.00 in 0.00 W/m2
03:19 28.0 °F 21.7 °F 30.35 in SSE 9.0 mph 5.0 mph 77% 0.00 in 0.00 W/m2
03:24 28.0 °F 21.7 °F 30.35 in SSW 2.3 mph 2.0 mph 77% 0.00 in 0.00 W/m2
03:29 28.0 °F 21.7 °F 30.34 in South 5.8 mph 4.8 mph 77% 0.00 in 0.00 W/m2
03:34 28.0 °F 21.7 °F 30.34 in South 5.8 mph 5.3 mph 77% 0.00 in 0.00 W/m2
03:39 27.9 °F 21.6 °F 30.34 in South 6.9 mph 4.3 mph 77% 0.00 in 0.00 W/m2
03:44 27.8 °F 21.5 °F 30.34 in SSW 6.9 mph 4.2 mph 77% 0.00 in 0.00 W/m2
03:49 27.7 °F 21.4 °F 30.34 in South 6.9 mph 3.9 mph 77% 0.00 in 0.00 W/m2
03:54 27.6 °F 21.3 °F 30.34 in South 6.9 mph 3.8 mph 77% 0.00 in 0.00 W/m2
03:59 27.5 °F 21.5 °F 30.33 in South 6.9 mph 4.3 mph 78% 0.00 in 0.00 W/m2
04:04 27.5 °F 21.5 °F 30.34 in South 6.9 mph 4.3 mph 78% 0.00 in 0.00 W/m2
04:09 27.5 °F 21.5 °F 30.34 in SSE 5.8 mph 4.2 mph 78% 0.00 in 0.00 W/m2
04:14 27.5 °F 21.5 °F 30.33 in SSW 5.8 mph 4.2 mph 78% 0.00 in 0.00 W/m2
04:19 27.6 °F 21.6 °F 30.33 in SSE 8.1 mph 5.4 mph 78% 0.00 in 0.00 W/m2
04:24 27.5 °F 21.5 °F 30.33 in South 6.9 mph 4.0 mph 78% 0.00 in 0.00 W/m2
04:29 27.4 °F 21.4 °F 30.33 in South 8.1 mph 5.2 mph 78% 0.00 in 0.00 W/m2
04:34 27.1 °F 21.5 °F 30.32 in SSE 6.9 mph 4.6 mph 79% 0.00 in 0.00 W/m2
04:39 27.0 °F 21.4 °F 30.32 in SSE 8.1 mph 4.3 mph 79% 0.00 in 0.00 W/m2
04:44 26.7 °F 21.4 °F 30.32 in SSE 7.0 mph 4.4 mph 80% 0.00 in 0.00 W/m2
04:49 26.5 °F 21.5 °F 30.32 in South 6.9 mph 5.1 mph 81% 0.00 in 0.00 W/m2
04:54 26.2 °F 21.2 °F 30.32 in South 8.1 mph 4.4 mph 81% 0.00 in 0.00 W/m2
04:59 26.0 °F 21.3 °F 30.32 in South 8.1 mph 4.9 mph 82% 0.00 in 0.00 W/m2
05:04 25.8 °F 21.1 °F 30.32 in South 7.0 mph 4.7 mph 82% 0.00 in 0.00 W/m2
05:09 25.7 °F 21.0 °F 30.32 in SSE 5.8 mph 4.4 mph 82% 0.00 in 0.00 W/m2
05:14 25.5 °F 21.1 °F 30.32 in SSE 5.8 mph 3.1 mph 83% 0.00 in 0.00 W/m2
05:19 25.3 °F 20.9 °F 30.32 in SE 7.0 mph 5.3 mph 83% 0.00 in 0.00 W/m2
05:24 25.2 °F 21.0 °F 30.31 in South 8.1 mph 4.9 mph 84% 0.00 in 0.00 W/m2
05:29 25.1 °F 20.9 °F 30.31 in SSE 7.0 mph 4.6 mph 84% 0.00 in 0.00 W/m2
05:34 25.1 °F 20.9 °F 30.31 in South 8.1 mph 4.4 mph 84% 0.00 in 0.00 W/m2
05:39 25.0 °F 20.8 °F 30.31 in North 7.0 mph 7.0 mph 84% 0.00 in 0.00 W/m2
05:44 24.9 °F 21.0 °F 30.31 in South 8.1 mph 5.8 mph 85% 0.00 in 0.00 W/m2
05:49 24.8 °F 20.7 °F 30.31 in SSE 8.1 mph 5.1 mph 84% 0.00 in 0.00 W/m2
05:54 24.8 °F 20.9 °F 30.31 in SSE 6.0 mph 5.4 mph 85% 0.00 in 0.00 W/m2
05:59 24.7 °F 20.8 °F 30.31 in North 8.1 mph 5.4 mph 85% 0.00 in 0.00 W/m2
06:04 24.7 °F 20.8 °F 30.31 in South 8.1 mph 6.1 mph 85% 0.00 in 0.00 W/m2
06:09 24.6 °F 20.7 °F 30.31 in SSE 9.2 mph 4.8 mph 85% 0.00 in 0.00 W/m2
06:14 24.5 °F 20.6 °F 30.31 in South 8.1 mph 5.2 mph 85% 0.00 in 0.00 W/m2
06:19 24.4 °F 20.5 °F 30.31 in South 7.0 mph 4.2 mph 85% 0.00 in 0.00 W/m2
06:24 24.3 °F 20.7 °F 30.31 in SSE 5.8 mph 4.6 mph 86% 0.00 in 0.00 W/m2
06:29 24.3 °F 20.7 °F 30.31 in SSE 5.8 mph 4.8 mph 86% 0.00 in 0.00 W/m2
06:34 24.2 °F 20.3 °F 30.31 in South 5.0 mph 4.5 mph 85% 0.00 in 0.00 W/m2
06:39 24.2 °F 20.6 °F 30.31 in SSW 7.0 mph 4.1 mph 86% 0.00 in 7.00 W/m2
06:44 24.2 °F 20.6 °F 30.31 in South 6.9 mph 3.9 mph 86% 0.00 in 11.00 W/m2
06:49 24.3 °F 20.7 °F 30.32 in SSE 6.9 mph 4.7 mph 86% 0.00 in 16.00 W/m2
06:54 24.4 °F 20.8 °F 30.31 in SSE 5.8 mph 4.9 mph 86% 0.00 in 18.00 W/m2
06:59 24.6 °F 21.0 °F 30.32 in South 6.0 mph 4.0 mph 86% 0.00 in 21.00 W/m2
07:04 24.8 °F 20.9 °F 30.32 in North 6.9 mph 5.4 mph 85% 0.00 in 25.00 W/m2
07:09 25.0 °F 21.1 °F 30.32 in South 7.0 mph 5.2 mph 85% 0.00 in 33.00 W/m2
07:14 25.2 °F 21.3 °F 30.32 in SSE 6.9 mph 4.4 mph 85% 0.00 in 47.00 W/m2
07:19 25.5 °F 21.3 °F 30.32 in South 5.0 mph 4.3 mph 84% 0.00 in 62.00 W/m2
07:24 25.9 °F 21.7 °F 30.32 in SSE 7.0 mph 4.6 mph 84% 0.00 in 74.00 W/m2
07:29 26.3 °F 21.8 °F 30.33 in South 5.8 mph 4.4 mph 83% 0.00 in 88.00 W/m2
07:34 26.7 °F 21.9 °F 30.33 in South 5.8 mph 2.6 mph 82% 0.00 in 90.00 W/m2
07:39 27.1 °F 22.3 °F 30.33 in South 8.1 mph 4.2 mph 82% 0.00 in 118.00 W/m2
07:44 27.6 °F 22.2 °F 30.33 in SW 8.1 mph 5.7 mph 80% 0.00 in 132.00 W/m2
07:49 27.9 °F 21.9 °F 30.33 in South 6.9 mph 4.5 mph 78% 0.00 in 151.00 W/m2
07:54 28.3 °F 22.3 °F 30.33 in North 9.2 mph 4.4 mph 78% 0.00 in 171.00 W/m2
07:59 28.6 °F 22.3 °F 30.33 in South 8.1 mph 3.4 mph 77% 0.00 in 188.00 W/m2
08:04 29.0 °F 22.4 °F 30.33 in SSW 10.4 mph 6.9 mph 76% 0.00 in 200.00 W/m2
08:09 29.3 °F 22.4 °F 30.33 in SSW 8.1 mph 5.1 mph 75% 0.00 in 214.00 W/m2
08:14 29.6 °F 22.3 °F 30.33 in SW 8.1 mph 4.7 mph 74% 0.00 in 220.00 W/m2
08:19 29.8 °F 22.2 °F 30.33 in South 10.4 mph 6.0 mph 73% 0.00 in 200.00 W/m2
08:24 29.8 °F 22.2 °F 30.32 in SSW 9.2 mph 5.4 mph 73% 0.00 in 272.00 W/m2
08:29 30.1 °F 22.5 °F 30.32 in SW 11.5 mph 6.9 mph 73% 0.00 in 290.00 W/m2
08:34 30.2 °F 22.3 °F 30.32 in SSW 12.0 mph 7.5 mph 72% 0.00 in 288.00 W/m2
08:39 30.5 °F 22.5 °F 30.33 in South 11.5 mph 4.9 mph 72% 0.00 in 301.00 W/m2
08:44 30.9 °F 22.9 °F 30.32 in South 9.2 mph 4.4 mph 72% 0.00 in 311.00 W/m2
08:49 31.2 °F 22.9 °F 30.32 in SW 11.5 mph 7.4 mph 71% 0.00 in 318.00 W/m2
08:54 31.4 °F 23.1 °F 30.32 in SW 12.7 mph 5.5 mph 71% 0.00 in 313.00 W/m2
08:59 31.6 °F 22.9 °F 30.32 in SSW 16.1 mph 6.0 mph 70% 0.00 in 357.00 W/m2
09:04 32.1 °F 23.4 °F 30.32 in South 10.4 mph 5.2 mph 70% 0.00 in 316.00 W/m2
09:09 32.2 °F 22.8 °F 30.32 in SW 12.7 mph 9.1 mph 68% 0.00 in 350.00 W/m2
09:14 32.6 °F 23.9 °F 30.31 in South 10.4 mph 4.1 mph 70% 0.00 in 343.00 W/m2
09:19 33.3 °F 24.2 °F 30.31 in SSW 11.5 mph 7.4 mph 69% 0.00 in 390.00 W/m2
09:24 33.4 °F 24.0 °F 30.31 in SW 9.2 mph 9.0 mph 68% 0.00 in 364.00 W/m2
09:29 33.7 °F 23.5 °F 30.32 in SW 11.5 mph 8.0 mph 66% 0.00 in 313.00 W/m2
09:34 34.1 °F 23.6 °F 30.31 in SSW 12.7 mph 8.8 mph 65% 0.00 in 388.00 W/m2
09:39 34.0 °F 23.5 °F 30.31 in SW 16.1 mph 8.9 mph 65% 0.00 in 406.00 W/m2
09:44 34.1 °F 23.9 °F 30.31 in SSW 11.5 mph 6.1 mph 66% 0.00 in 431.00 W/m2
09:49 34.5 °F 24.3 °F 30.31 in South 17.0 mph 9.5 mph 66% 0.00 in 443.00 W/m2
09:54 34.5 °F 23.9 °F 30.31 in SSW 12.7 mph 8.1 mph 65% 0.00 in 427.00 W/m2
09:59 34.7 °F 24.5 °F 30.32 in SW 9.2 mph 4.8 mph 66% 0.00 in 441.00 W/m2
10:04 35.2 °F 24.6 °F 30.31 in SW 10.4 mph 6.5 mph 65% 0.00 in 454.00 W/m2
10:09 35.2 °F 24.2 °F 30.31 in South 11.5 mph 8.1 mph 64% 0.00 in 476.00 W/m2
10:14 35.5 °F 24.5 °F 30.31 in SSW 13.8 mph 6.6 mph 64% 0.00 in 489.00 W/m2
10:19 35.7 °F 24.7 °F 30.31 in South 9.2 mph 6.8 mph 64% 0.00 in 406.00 W/m2
10:24 35.9 °F 24.9 °F 30.31 in South 12.7 mph 5.4 mph 64% 0.00 in 420.00 W/m2
10:29 35.9 °F 24.9 °F 30.31 in SSE 8.1 mph 4.4 mph 64% 0.00 in 434.00 W/m2
10:34 36.1 °F 25.1 °F 30.30 in SW 11.5 mph 7.5 mph 64% 0.00 in 461.00 W/m2
10:39 36.4 °F 25.0 °F 30.30 in SSE 11.5 mph 4.1 mph 63% 0.00 in 468.00 W/m2
10:44 37.0 °F 25.9 °F 30.31 in SSW 9.2 mph 4.6 mph 64% 0.00 in 476.00 W/m2
10:49 37.4 °F 25.6 °F 30.31 in SSW 9.2 mph 7.1 mph 62% 0.00 in 501.00 W/m2
10:54 37.6 °F 25.7 °F 30.30 in SW 12.7 mph 9.0 mph 62% 0.00 in 487.00 W/m2
10:59 37.9 °F 26.0 °F 30.30 in South 15.0 mph 5.2 mph 62% 0.00 in 510.00 W/m2
11:04 37.9 °F 25.6 °F 30.30 in SSW 10.4 mph 6.4 mph 61% 0.00 in 504.00 W/m2
11:09 38.0 °F 25.3 °F 30.29 in SSE 12.7 mph 8.3 mph 60% 0.00 in 513.00 W/m2
11:14 38.3 °F 26.4 °F 30.29 in SSW 6.9 mph 4.5 mph 62% 0.00 in 515.00 W/m2
11:19 38.7 °F 26.4 °F 30.29 in SSW 10.4 mph 3.3 mph 61% 0.00 in 517.00 W/m2
11:24 39.2 °F 27.3 °F 30.29 in South 6.9 mph 4.4 mph 62% 0.00 in 520.00 W/m2
11:29 39.4 °F 27.1 °F 30.29 in South 11.5 mph 6.0 mph 61% 0.00 in 519.00 W/m2
11:34 39.6 °F 27.2 °F 30.29 in SW 11.5 mph 7.2 mph 61% 0.00 in 522.00 W/m2
11:39 39.2 °F 26.5 °F 30.28 in SSW 8.1 mph 4.7 mph 60% 0.00 in 519.00 W/m2
11:44 39.3 °F 27.0 °F 30.28 in SW 13.8 mph 5.3 mph 61% 0.00 in 513.00 W/m2
11:49 39.4 °F 27.1 °F 30.28 in SSE 11.5 mph 7.4 mph 61% 0.00 in 499.00 W/m2
11:54 39.7 °F 27.3 °F 30.28 in SSW 11.5 mph 5.0 mph 61% 0.00 in 519.00 W/m2
11:59 39.9 °F 27.1 °F 30.28 in SSW 11.5 mph 3.9 mph 60% 0.00 in 527.00 W/m2
12:04 39.8 °F 26.2 °F 30.27 in South 13.8 mph 5.9 mph 58% 0.00 in 311.00 W/m2
12:09 39.5 °F 26.8 °F 30.27 in SSW 12.7 mph 9.0 mph 60% 0.00 in 452.00 W/m2
12:14 39.5 °F 26.8 °F 30.26 in SW 11.5 mph 7.7 mph 60% 0.00 in 441.00 W/m2
12:19 39.8 °F 27.8 °F 30.26 in SSW 9.2 mph 4.4 mph 62% 0.00 in 512.00 W/m2
12:24 40.4 °F 28.0 °F 30.26 in SW 11.5 mph 5.9 mph 61% 0.00 in 550.00 W/m2
12:29 40.6 °F 27.8 °F 30.26 in SSE 12.7 mph 5.9 mph 60% 0.00 in 496.00 W/m2
12:34 40.4 °F 27.2 °F 30.26 in SSW 9.0 mph 7.0 mph 59% 0.00 in 434.00 W/m2
12:39 40.3 °F 27.1 °F 30.26 in South 13.0 mph 6.3 mph 59% 0.00 in 483.00 W/m2
12:44 40.5 °F 27.3 °F 30.25 in South 10.4 mph 6.5 mph 59% 0.00 in 526.00 W/m2
12:49 40.8 °F 27.6 °F 30.25 in SW 8.1 mph 6.0 mph 59% 0.00 in 374.00 W/m2
12:54 40.6 °F 27.0 °F 30.25 in SSW 11.5 mph 6.0 mph 58% 0.00 in 369.00 W/m2
12:59 40.4 °F 27.2 °F 30.25 in SSW 10.4 mph 6.4 mph 59% 0.00 in 309.00 W/m2
13:04 40.4 °F 27.6 °F 30.25 in SW 8.1 mph 3.3 mph 60% 0.00 in 376.00 W/m2
13:09 40.6 °F 27.8 °F 30.25 in SW 10.0 mph 5.8 mph 60% 0.00 in 432.00 W/m2
13:14 41.0 °F 28.6 °F 30.25 in SSW 6.9 mph 4.5 mph 61% 0.00 in 448.00 W/m2
13:19 41.3 °F 28.0 °F 30.25 in SSW 11.5 mph 5.7 mph 59% 0.00 in 436.00 W/m2
13:24 41.6 °F 27.9 °F 30.25 in SSW 10.4 mph 7.1 mph 58% 0.00 in 436.00 W/m2
13:29 41.7 °F 28.0 °F 30.25 in SW 9.2 mph 4.7 mph 58% 0.00 in 417.00 W/m2
13:34 41.9 °F 27.8 °F 30.25 in North 11.5 mph 7.1 mph 57% 0.00 in 431.00 W/m2
13:39 42.4 °F 28.7 °F 30.25 in WSW 5.8 mph 4.9 mph 58% 0.00 in 462.00 W/m2
13:44 42.7 °F 28.5 °F 30.25 in South 11.5 mph 5.0 mph 57% 0.00 in 427.00 W/m2
13:49 42.6 °F 28.4 °F 30.25 in SSE 11.5 mph 8.0 mph 57% 0.00 in 394.00 W/m2
13:54 42.7 °F 28.9 °F 30.24 in South 6.9 mph 5.0 mph 58% 0.00 in 334.00 W/m2
13:59 42.7 °F 28.5 °F 30.24 in WSW 10.4 mph 5.6 mph 57% 0.00 in 367.00 W/m2
14:04 42.5 °F 28.8 °F 30.24 in South 8.1 mph 3.7 mph 58% 0.00 in 394.00 W/m2
14:09 42.8 °F 28.6 °F 30.25 in South 6.9 mph 3.5 mph 57% 0.00 in 381.00 W/m2
14:14 42.7 °F 28.5 °F 30.24 in SW 10.4 mph 4.2 mph 57% 0.00 in 142.00 W/m2
14:19 42.2 °F 28.0 °F 30.24 in SSW 6.9 mph 3.9 mph 57% 0.00 in 267.00 W/m2
14:24 42.3 °F 29.0 °F 30.24 in SSW 6.9 mph 5.1 mph 59% 0.00 in 327.00 W/m2
14:29 42.4 °F 28.2 °F 30.24 in South 8.1 mph 3.1 mph 57% 0.00 in 288.00 W/m2
14:34 42.5 °F 28.3 °F 30.24 in South 4.6 mph 2.6 mph 57% 0.00 in 237.00 W/m2
14:39 42.4 °F 28.7 °F 30.24 in SSW 8.1 mph 3.9 mph 58% 0.00 in 186.00 W/m2
14:44 42.2 °F 28.5 °F 30.24 in SSW 5.8 mph 1.9 mph 58% 0.00 in 248.00 W/m2
14:49 42.6 °F 29.3 °F 30.24 in SSW 5.8 mph 3.0 mph 59% 0.00 in 309.00 W/m2
14:54 42.9 °F 29.1 °F 30.24 in North 5.8 mph 4.0 mph 58% 0.00 in 113.00 W/m2
14:59 42.5 °F 28.8 °F 30.24 in SSE 5.8 mph 4.2 mph 58% 0.00 in 264.00 W/m2
15:04 42.5 °F 28.8 °F 30.25 in SW 6.9 mph 4.1 mph 58% 0.00 in 146.00 W/m2
15:09 42.2 °F 28.5 °F 30.25 in SW 9.2 mph 5.0 mph 58% 0.00 in 90.00 W/m2
15:14 42.0 °F 28.7 °F 30.25 in SW 8.1 mph 4.7 mph 59% 0.00 in 135.00 W/m2
15:19 41.9 °F 28.6 °F 30.25 in WSW 4.6 mph 3.9 mph 59% 0.00 in 86.00 W/m2
15:24 41.6 °F 28.7 °F 30.25 in SW 6.9 mph 3.2 mph 60% 0.00 in 93.00 W/m2
15:29 41.5 °F 29.0 °F 30.25 in SSW 3.5 mph 1.4 mph 61% 0.00 in 90.00 W/m2
15:34 41.5 °F 28.6 °F 30.25 in SSW 8.1 mph 4.6 mph 60% 0.00 in 60.00 W/m2
15:39 41.3 °F 28.4 °F 30.25 in SSW 8.1 mph 2.9 mph 60% 0.00 in 33.00 W/m2
15:44 40.9 °F 28.1 °F 30.25 in SW 3.5 mph 2.3 mph 60% 0.00 in 33.00 W/m2
15:49 40.7 °F 28.3 °F 30.25 in SSW 6.9 mph 1.6 mph 61% 0.00 in 35.00 W/m2
15:54 40.4 °F 28.4 °F 30.25 in SSW 5.8 mph 1.7 mph 62% 0.00 in 32.00 W/m2
15:59 40.3 °F 28.3 °F 30.25 in SW 2.3 mph 2.1 mph 62% 0.00 in 35.00 W/m2
16:04 40.2 °F 28.2 °F 30.25 in SSW 3.5 mph 1.0 mph 62% 0.00 in 33.00 W/m2
16:09 40.2 °F 28.2 °F 30.25 in SW 3.5 mph 0.8 mph 62% 0.00 in 33.00 W/m2
16:14 40.2 °F 28.2 °F 30.25 in SW 1.2 mph 0.1 mph 62% 0.00 in 30.00 W/m2
16:19 40.1 °F 28.1 °F 30.25 in SSW 3.5 mph 0.5 mph 62% 0.00 in 21.00 W/m2
16:24 40.0 °F 28.0 °F 30.25 in SW 2.3 mph 1.4 mph 62% 0.00 in 14.00 W/m2
16:29 39.8 °F 27.8 °F 30.25 in SW 3.5 mph 0.9 mph 62% 0.00 in 9.00 W/m2
16:34 39.6 °F 28.0 °F 30.25 in SSW 4.6 mph 2.2 mph 63% 0.00 in 5.00 W/m2
16:39 39.4 °F 27.8 °F 30.25 in SW 3.5 mph 1.4 mph 63% 0.00 in 0.00 W/m2
16:44 39.2 °F 28.0 °F 30.25 in SW 1.2 mph   64% 0.00 in 0.00 W/m2
16:49 38.9 °F 27.8 °F 30.25 in SW 1.2 mph   64% 0.00 in 0.00 W/m2
16:54 38.7 °F 27.9 °F 30.26 in Calm     65% 0.00 in 0.00 W/m2
16:59 38.4 °F 28.0 °F 30.26 in SW 1.2 mph   66% 0.00 in 0.00 W/m2
17:04 38.0 °F 27.6 °F 30.26 in Calm     66% 0.00 in 0.00 W/m2
17:09 37.8 °F 27.8 °F 30.26 in Calm     67% 0.00 in 0.00 W/m2
17:14 37.5 °F 27.5 °F 30.27 in Calm     67% 0.00 in 0.00 W/m2
17:19 37.2 °F 27.6 °F 30.27 in Calm     68% 0.00 in 0.00 W/m2
17:24 36.9 °F 27.3 °F 30.27 in Calm     68% 0.00 in 0.00 W/m2
17:29 36.6 °F 27.4 °F 30.27 in Calm     69% 0.00 in 0.00 W/m2
17:34 36.1 °F 27.3 °F 30.26 in Calm     70% 0.00 in 0.00 W/m2
17:39 35.5 °F 27.4 °F 30.26 in Calm     72% 0.00 in 0.00 W/m2
17:44 35.1 °F 27.3 °F 30.26 in Calm     73% 0.00 in 0.00 W/m2
17:49 34.7 °F 27.3 °F 30.27 in Calm     74% 0.00 in 0.00 W/m2
17:54 34.3 °F 26.9 °F 30.27 in Calm     74% 0.00 in 0.00 W/m2
17:59 34.0 °F 26.9 °F 30.27 in Calm     75% 0.00 in 0.00 W/m2
18:04 33.8 °F 27.0 °F 30.27 in Calm     76% 0.00 in 0.00 W/m2
18:09 33.7 °F 27.3 °F 30.27 in Calm     77% 0.00 in 0.00 W/m2
18:14 33.6 °F 27.2 °F 30.28 in Calm     77% 0.00 in 0.00 W/m2
18:19 33.6 °F 27.2 °F 30.28 in Calm     77% 0.00 in 0.00 W/m2
18:24 33.7 °F 27.6 °F 30.28 in Calm     78% 0.00 in 0.00 W/m2
18:29 34.1 °F 28.0 °F 30.28 in Calm     78% 0.00 in 0.00 W/m2
18:34 33.9 °F 27.4 °F 30.28 in SW 1.0 mph 0.2 mph 77% 0.00 in 0.00 W/m2
18:39 33.7 °F 27.6 °F 30.29 in Calm     78% 0.00 in 0.00 W/m2
18:44 33.5 °F 27.4 °F 30.29 in Calm     78% 0.00 in 0.00 W/m2
18:49 33.5 °F 27.7 °F 30.28 in Calm     79% 0.00 in 0.00 W/m2
18:54 33.3 °F 27.5 °F 30.28 in Calm     79% 0.00 in 0.00 W/m2
18:59 33.4 °F 27.9 °F 30.28 in Calm     80% 0.00 in 0.00 W/m2
19:04 33.5 °F 28.0 °F 30.28 in Calm     80% 0.00 in 0.00 W/m2
19:09 33.5 °F 27.7 °F 30.28 in Calm     79% 0.00 in 0.00 W/m2
19:14 33.6 °F 27.8 °F 30.28 in Calm     79% 0.00 in 0.00 W/m2
19:19 33.7 °F 27.9 °F 30.28 in Calm     79% 0.00 in 0.00 W/m2
19:24 33.6 °F 27.8 °F 30.28 in Calm     79% 0.00 in 0.00 W/m2
19:29 33.8 °F 28.3 °F 30.28 in Calm     80% 0.00 in 0.00 W/m2
19:34 34.0 °F 28.5 °F 30.28 in Calm     80% 0.00 in 0.00 W/m2
19:39 34.2 °F 28.7 °F 30.29 in Calm     80% 0.00 in 0.00 W/m2
19:44 34.4 °F 28.6 °F 30.29 in Calm     79% 0.00 in 0.00 W/m2
19:49 34.3 °F 28.5 °F 30.28 in Calm     79% 0.00 in 0.00 W/m2
19:54 34.3 °F 28.8 °F 30.28 in Calm     80% 0.00 in 0.00 W/m2
19:59 34.4 °F 28.9 °F 30.28 in Calm     80% 0.00 in 0.00 W/m2
20:04 34.3 °F 28.5 °F 30.28 in SW 2.3 mph   79% 0.00 in 0.00 W/m2
20:09 34.0 °F 28.2 °F 30.29 in Calm     79% 0.00 in 0.00 W/m2
20:14 33.5 °F 27.7 °F 30.29 in Calm     79% 0.00 in 0.00 W/m2
20:19 33.0 °F 27.5 °F 30.29 in Calm     80% 0.00 in 0.00 W/m2
20:24 32.8 °F 27.6 °F 30.28 in Calm     81% 0.00 in 0.00 W/m2
20:29 32.7 °F 27.8 °F 30.29 in Calm     82% 0.00 in 0.00 W/m2
20:34 32.7 °F 27.8 °F 30.29 in Calm     82% 0.00 in 0.00 W/m2
20:39 32.6 °F 27.7 °F 30.29 in Calm     82% 0.00 in 0.00 W/m2
20:44 32.7 °F 27.8 °F 30.29 in Calm     82% 0.00 in 0.00 W/m2
20:49 32.5 °F 27.6 °F 30.29 in SW 2.3 mph 1.4 mph 82% 0.00 in 0.00 W/m2
20:54 32.3 °F 27.7 °F 30.29 in Calm     83% 0.00 in 0.00 W/m2
20:59 32.2 °F 27.6 °F 30.29 in Calm     83% 0.00 in 0.00 W/m2
21:04 32.2 °F 27.9 °F 30.29 in Calm     84% 0.00 in 0.00 W/m2
21:09 32.1 °F 27.8 °F 30.29 in Calm     84% 0.00 in 0.00 W/m2
21:14 32.1 °F 27.8 °F 30.29 in Calm     84% 0.00 in 0.00 W/m2
21:19 32.0 °F 27.7 °F 30.29 in Calm     84% 0.00 in 0.00 W/m2
21:24 31.9 °F 27.9 °F 30.29 in Calm     85% 0.00 in 0.00 W/m2
21:29 31.9 °F 27.9 °F 30.29 in Calm     85% 0.00 in 0.00 W/m2
21:34 32.0 °F 28.0 °F 30.29 in Calm     85% 0.00 in 0.00 W/m2
21:39 32.2 °F 28.2 °F 30.29 in Calm     85% 0.00 in 0.00 W/m2
21:44 32.3 °F 28.3 °F 30.29 in Calm     85% 0.00 in 0.00 W/m2
21:49 32.1 °F 27.8 °F 30.29 in Calm     84% 0.00 in 0.00 W/m2
21:54 31.8 °F 27.8 °F 30.29 in Calm     85% 0.00 in 0.00 W/m2
21:59 31.6 °F 27.6 °F 30.30 in Calm     85% 0.00 in 0.00 W/m2
22:04 31.5 °F 27.5 °F 30.30 in Calm     85% 0.00 in 0.00 W/m2
22:09 31.6 °F 27.9 °F 30.30 in SW 1.0 mph   86% 0.00 in 0.00 W/m2
22:14 31.6 °F 27.9 °F 30.30 in Calm     86% 0.00 in 0.00 W/m2
22:19 31.7 °F 28.0 °F 30.30 in SW 1.2 mph 0.3 mph 86% 0.00 in 0.00 W/m2
22:24 31.8 °F 28.1 °F 30.30 in SW 1.2 mph 0.9 mph 86% 0.00 in 0.00 W/m2
22:29 31.9 °F 28.2 °F 30.30 in SW 1.2 mph   86% 0.00 in 0.00 W/m2
22:34 32.1 °F 28.4 °F 30.30 in SW 1.2 mph   86% 0.00 in 0.00 W/m2
22:39 32.2 °F 28.5 °F 30.30 in Calm   0.9 mph 86% 0.00 in 0.00 W/m2
22:44 32.2 °F 28.2 °F 30.30 in SW 2.3 mph 1.4 mph 85% 0.00 in 0.00 W/m2
22:49 32.1 °F 28.1 °F 30.30 in SW 2.3 mph 2.0 mph 85% 0.00 in 0.00 W/m2
22:54 32.1 °F 28.1 °F 30.30 in SW 2.3 mph 0.4 mph 85% 0.00 in 0.00 W/m2
22:59 32.0 °F 28.0 °F 30.31 in SW 3.5 mph 0.6 mph 85% 0.00 in 0.00 W/m2
23:04 31.9 °F 27.9 °F 30.31 in Calm     85% 0.00 in 0.00 W/m2
23:09 31.8 °F 27.8 °F 30.30 in Calm     85% 0.00 in 0.00 W/m2
23:14 31.8 °F 27.8 °F 30.30 in Calm     85% 0.00 in 0.00 W/m2
23:19 31.9 °F 27.6 °F 30.30 in Calm     84% 0.00 in 0.00 W/m2
23:24 31.5 °F 27.2 °F 30.30 in SSE 3.5 mph 2.6 mph 84% 0.00 in 0.00 W/m2
23:29 31.1 °F 26.8 °F 30.31 in Calm     84% 0.00 in 0.00 W/m2
23:34 31.1 °F 27.1 °F 30.31 in Calm     85% 0.00 in 0.00 W/m2
23:39 31.0 °F 27.0 °F 30.31 in SSE 3.5 mph 1.3 mph 85% 0.00 in 0.00 W/m2
23:44 30.8 °F 26.8 °F 30.31 in Calm     85% 0.00 in 0.00 W/m2
23:49 30.8 °F 27.4 °F 30.31 in Calm     87% 0.00 in 0.00 W/m2
23:54 31.0 °F 27.6 °F 30.32 in Calm     87% 0.00 in 0.00 W/m2
23:59 31.1 °F 27.7 °F 30.32 in Calm     87% 0.00 in 0.00 W/m2
Bourbonnais, Illinois, USA
Compliments of Weather Underground - 4 mb